Terminal Aerodrome Forecast
Issued by NWS

Home | Current Version | Previous Version | Text Only | Print | Product List | Glossary On
Versions: 1 2 3 4 5 6 7 8 9 10 11 12 13 14 15 16 17 18 19 20 21 22 23 24 25 26 27 28 29
000
FTAK31 PAFA 042320
TAFAQT
TAF
PAQT 042320Z 0500/0524 08016G24KT P6SM OVC010
     FM050300 08015KT P6SM OVC004
     FM050900 08012KT P6SM OVC003
     FM051200 08012KT 1SM BR OVC003
     FM051900 07010KT 6SM BR OVC003=

USA.gov is the U.S. government's official web portal to all federal, state and local government web resources and services.